Terminal Aerodrome Forecast
Issued by NWS

Home | Current Version | Previous Version | Graphics & Text | Print | Product List | Glossary On
Versions: 1 2 3 4 5 6 7 8 9 10 11 12 13 14 15 16 17
000
FTUS43 KTOP 070500
TAFFOE
TAF
KFOE 070520Z 0706/0806 VRB04KT P6SM BKN200
     FM071600 17009KT P6SM SCT150
     FM080400 12008KT P6SM VCTS SCT015CB BKN150=

USA.gov is the U.S. government's official web portal to all federal, state and local government web resources and services.